logo tempoitalia

Diretta Meteo Salamanca-Matacan, Spagnavenerdì 19 luglio ore 06:30

Mappa
Sereno 14 °C Sereno 24 Ore: T.min 14 T.max 34
Ponente Nord Km/h 0 Punto di rugiada: 12 °C Umidità: 87% Visibilità: 10 Km
Il sole sorge alle: 07:05 Il sole tramonta alle: 21:51
19 Luglio 2024 06:30 tempo osservato: Sereno Sereno 14 87 1022 vento: Nord N 0
19 Luglio 2024 06:00 tempo osservato: Sereno Sereno 14 87 1022 vento: Nord N 0
19 Luglio 2024 05:30 tempo osservato: Sereno Sereno 15 82 1022 vento: Nord N 0
19 Luglio 2024 05:00 tempo osservato: Sereno Sereno 15 82 1022 vento: Nord N 0
19 Luglio 2024 04:30 tempo osservato: Sereno Sereno 16 77 1022 vento: Nord N 0
19 Luglio 2024 04:00 tempo osservato: Sereno Sereno 16 77 1022 vento: Nord N 1.8
19 Luglio 2024 03:30 tempo osservato: Sereno Sereno 19 52 1022 vento: Nord N 0
19 Luglio 2024 03:00 tempo osservato: Sereno Sereno 16 77 1022 vento: Nord N 0
19 Luglio 2024 02:30 tempo osservato: Sereno Sereno 16 77 1022 vento: Nord N 1.8
19 Luglio 2024 02:00 tempo osservato: Sereno Sereno 17 72 1022 vento: Nord N 5.5
19 Luglio 2024 01:30 tempo osservato: Sereno Sereno 20 45 1022 vento: Nord N 3.7
19 Luglio 2024 01:00 tempo osservato: Sereno Sereno 18 72 1021 vento: Nord N 0
19 Luglio 2024 00:30 tempo osservato: Sereno Sereno 18 82 1021 vento: Nord N 0
19 Luglio 2024 00:00 tempo osservato: Sereno Sereno 19 68 1021 vento: Nord N 3.7
18 Luglio 2024 23:30 tempo osservato: Sereno Sereno 22 53 1021 vento: Nord N 1.8
18 Luglio 2024 23:00 tempo osservato: Sereno Sereno 22 49 1021 vento: Nord N 3.7
18 Luglio 2024 22:30 tempo osservato: Sereno Sereno 22 56 1020 vento: Nord N 5.5
18 Luglio 2024 22:00 tempo osservato: Sereno Sereno 25 38 1020 vento: Nord O/SO 11.1
18 Luglio 2024 21:30 tempo osservato: Sereno Sereno 29 23 1020 vento: Nord SO 14.8
18 Luglio 2024 21:00 tempo osservato: Sereno Sereno 31 19 1020 vento: Nord SO 22.2
18 Luglio 2024 20:30 tempo osservato: Sereno Sereno 32 18 1020 vento: Nord SO 27.8
18 Luglio 2024 20:00 tempo osservato: Sereno Sereno 33 17 1020 vento: Nord S/SO 29.6
18 Luglio 2024 19:30 tempo osservato: Sereno Sereno 34 17 1020 vento: Nord SO 22.2
18 Luglio 2024 19:00 tempo osservato: Sereno Sereno 33 26 1020 vento: Nord O/NO 7.4
18 Luglio 2024 18:30 tempo osservato: Sereno Sereno 34 17 1020 vento: Nord S 14.8
18 Luglio 2024 18:00 tempo osservato: Sereno Sereno 33 33 1019 vento: Nord O/NO 7.4
18 Luglio 2024 17:30 tempo osservato: Sereno Sereno 33 27 1019 vento: Nord N 9.3
18 Luglio 2024 17:00 tempo osservato: Sereno Sereno 34 30 1020 vento: Nord O 11.1
18 Luglio 2024 16:30 tempo osservato: Sereno Sereno 34 26 1020 vento: Nord O/NO 9.3
18 Luglio 2024 16:00 tempo osservato: Sereno Sereno 33 22 1020 vento: Nord N 7.4
18 Luglio 2024 15:30 tempo osservato: Sereno Sereno 32 31 1020 vento: Nord NO 13
18 Luglio 2024 15:00 tempo osservato: Sereno Sereno 32 27 1020 vento: Nord O/NO 16.7
18 Luglio 2024 14:30 tempo osservato: Sereno Sereno 32 31 1020 vento: Nord O/NO 11.1
18 Luglio 2024 14:00 tempo osservato: Sereno Sereno 31 37 1020 vento: Nord O/NO 14.8
18 Luglio 2024 13:30 tempo osservato: Sereno Sereno 31 33 1020 vento: Nord O/NO 13
18 Luglio 2024 13:00 tempo osservato: Sereno Sereno 30 33 1020 vento: Nord O/NO 11.1
18 Luglio 2024 12:30 tempo osservato: Sereno Sereno 29 39 1021 vento: Nord NO 9.3
18 Luglio 2024 12:00 tempo osservato: Sereno Sereno 28 42 1021 vento: Nord N 5.5
18 Luglio 2024 11:30 tempo osservato: Sereno Sereno 26 50 1021 vento: Nord N 3.7
18 Luglio 2024 11:00 tempo osservato: Sereno Sereno 24 64 1021 vento: Nord N 5.5
18 Luglio 2024 10:30 tempo osservato: Sereno Sereno 23 68 1021 vento: Nord N 5.5
18 Luglio 2024 10:00 tempo osservato: Sereno Sereno 21 73 1021 vento: Nord N 1.8
18 Luglio 2024 09:30 tempo osservato: Sereno Sereno 20 64 1021 vento: Nord N 0
18 Luglio 2024 09:00 tempo osservato: Sereno Sereno 17 77 1021 vento: Nord N 0
18 Luglio 2024 08:30 tempo osservato: Sereno Sereno 15 87 1020 vento: Nord N 0
18 Luglio 2024 08:00 tempo osservato: Sereno Sereno 14 87 1020 vento: Nord N 3.7